AirNav   Air Wisconsin pilot careers
 
 587 users online  

O20 Kingdon Airpark
Lodi, California, USA

GOING TO LODI?


FAA INFORMATION EFFECTIVE 09 NOVEMBER 2017

Location

FAA Identifier: O20
Lat/Long: 38-05-29.7110N / 121-21-33.8150W
38-05.495183N / 121-21.563583W
38.0915864 / -121.3593931
(estimated)
Elevation: 15 ft. / 5 m (estimated)
Variation: 16E (1985)
From city: 4 miles SW of LODI, CA
Time zone: UTC -8 (UTC -7 during Daylight Saving Time)
Zip code: 95242

Airport Operations

Airport use: Open to the public
Activation date: 07/1944
Control tower: no
ARTCC: OAKLAND CENTER
FSS: RANCHO MURIETA FLIGHT SERVICE STATION
NOTAMs facility: RIU (NOTAM-D service available)
Attendance: IREG IREG ON CALL
CTC AMGR AT 209-986-0797
Pattern altitude: 815 ft. MSL
Wind indicator: yes
Segmented circle: no
Lights: FOR LIRL RWY 12/30 KEY 122.8 5 TIMES.

Airport Communications

CTAF/UNICOM: 122.8
WX ASOS at SCK (13 nm SE): PHONE 209-982-4270
WX AWOS-AV at O88 (17 nm W): 127.075 (707-374-5396)

Nearby radio navigation aids

VOR radial/distance  VOR name  Freq  Var
LINr256/16.8LINDEN VOR/DME114.8017E
ECAr313/17.9MANTECA VOR/DME116.0017E
SACr140/23.0SACRAMENTO VORTAC115.2017E
CCRr068/32.5CONCORD VOR/DME117.0017E
MODr309/33.7MODESTO VOR/DME114.6017E
MCCr160/34.6MC CLELLAN VOR/DME109.2017E

 
NDB name  Hdg/Dist  Freq  Var  ID
TRACY355/24.320315ETCY - -.-. -.--

Airport Services

Fuel available: 100LL
SELF-FUELING FAC AVBL 24/7.
Parking: tiedowns
Airframe service: NONE
Powerplant service: NONE
Bottled oxygen: NONE
Bulk oxygen: NONE

Runway Information

Runway 12/30

Dimensions: 3705 x 60 ft. / 1129 x 18 m
Surface: asphalt, in fair condition
NW 1000 FT ROUGH SFC.
Weight bearing capacity: 
Single wheel: GROSS PAVEMENT STRENGTH PRVDD BY MGR; 30000 LBS.
Runway edge lights: non-standard
NSTD EDGE LGTS 40 FT FM EDGE OF RY; RY 12 LGTD THR RELOCATED 295 FT; RY 30 LGTD THR RELOCATED 490 FT FOR NIGHT OPNS. 3215 FT OF RY 12/30 USABLE AT NIGHT.
RUNWAY 12  RUNWAY 30
Gradient: 0.1%0.1%
Traffic pattern: leftleft
Displaced threshold: 295 ft.490 ft.
Markings: basic, in fair conditionbasic, in fair condition
Visual slope indicator: tri-color VASI on left (4.50 degrees glide path)
RY 30 VASI OTS INDEFLY.
Runway end identifier lights: no
Obstructions: 3 ft. fence, 200 ft. from runway, 5 ft. left of centerline
3 FT FENCE 0-200 FT FM RY END; +2 FT DIRT PILES 0 FT FM RY END 50 FT L & 40 FT FM RY END 100 FT R.
15 ft. road, 300 ft. from runway, 135 ft. right of centerline, 6:1 slope to clear
+15' LGT POLE 130' FM RY END 100' R; AUTO PARKING LOT IN E CORNER OF PRIMARY SURFACE.

Airport Ownership and Management from official FAA records

Ownership: Privately-owned
Owner: AG PROJECT MNG. LLC.
4100 EAST FREMONT STREET
STOCKTON, CA 95215
Phone 209-986-0797
Manager: AMRIT (RICK) GREWAL
4100 EAST FREMONT STREET
STOCKTON, CA 95215
Phone 209-986-0797

Airport Operational Statistics

Aircraft based on the field: 28
Single engine airplanes: 25
Multi engine airplanes: 3
    
Aircraft operations: avg 22/day *
58% local general aviation
42% transient general aviation
* for 12-month period ending 08 March 2017

Additional Remarks

TWY CLSD INDEFLY.
ACFT PARKED 115' LEFT OF RY 30 CNTRLN SE END OF RY PRIOR TO DSPLCD THR.
FOR CD CTC NORCAL APCH AT 916-361-0516.

Instrument Procedures

There are no published instrument procedures at O20.

Some nearby airports with instrument procedures:

1O3 - Lodi Airport (8 nm NE)
KSCK - Stockton Metropolitan Airport (13 nm SE)
O88 - Rio Vista Municipal Airport (17 nm W)
C83 - Byron Airport (20 nm SW)
KTCY - Tracy Municipal Airport (24 nm S)
 
Loc | Ops | Rwys | IFR | FBO | Links
Com | Nav | Svcs | Stats | Notes


 
Area around O20 (Kingdon Airpark)
 
Road maps at: MapQuest Bing Google
 
Aerial photo
WARNING: Photo may not be current or correct
Aerial photo of O20 (Kingdon Airpark)
Photo taken 05-May-2007
from FL210

Do you have a better or more recent aerial photo of Kingdon Airpark that you would like to share? If so, please send us your photo.

 
Sectional chart

 
Airport distance calculator
Flying to Kingdon Airpark? Find the distance to fly.

From to O20

Sunrise and sunset
Times for 19-Nov-2017
 Local
(UTC-8)
 Zulu
(UTC)
Morning civil twilight06:2314:23
Sunrise06:5214:52
Sunset16:5000:50
Evening civil twilight17:1801:18

Current date and time
Zulu (UTC)  19-Nov-2017 12:48:05
Local (UTC-8)  19-Nov-2017 04:48:05
 
METAR
KSCK 
14nm SE 
191155Z AUTO 00000KT 8SM SCT004 04/04 A3017 RMK AO2 SLP216 T00390039 10078 20033 56001
KC83 
20nm SW 
191235Z AUTO 00000KT 10SM OVC036 05/05 A3017 RMK AO2
KSAC 
25nm N 
191153Z AUTO 00000KT 6SM BR CLR 04/04 A3017 RMK AO2 SLP217 T00440044 10072 20044 56005
KMHR 
27nm N 
190145Z 36004KT 10SM SCT041 BKN049 12/06 A3015
KSUU 
28nm W 
191158Z 00000KT 10SM CLR 01/01 A3016 RMK AO2A SLP220 T00130007 10050 20008 53000
TAF
KSCK 
14nm SE 
191120Z 1912/2012 00000KT P6SM SCT250 FM191400 00000KT 4SM BR SCT250 TEMPO 1914/1918 1SM BR FM191800 VRB03KT P6SM BKN250
NOTAMs
Click for the latest NOTAMs
NOTAMs are issued by the DoD/FAA and will open in a separate window not controlled by AirNav.

 

 
 

FBO, Fuel Providers, and Aircraft Ground Support

  
 Business Name 
 
 Contact 
 
 Services / Description 
 
Fuel Prices
 
Comments
  
Kingdon Airpark 209-334-2961
no information available

If you are affiliated with Kingdon Airpark and would like to show here your services, contact info, web link, logo, and more, click here
100LL
SS $4.29 
 Updated 25-Mar-2017
 
   write
SS=Self service
Update Fuel Prices
 

Would you like to see your business listed on this page?

 If your business provides an interesting product or service to pilots, flight crews, aircraft, or users of the Kingdon Airpark, you should consider listing it here.  To start the listing process, click on the button below
 
Add a business
 

Other Pages about Kingdon Airpark

www.kingdonairport.com
 
Update a link
 
Copyright © AirNav, LLC. All rights reserved. Privacy Policy  Contact